Time;durP1;ratioP1;P1;durP2;ratioP2;P2;SDS_P1;SDS_P2;PMS_P1;PMS_P2;Temp;Humidity;BMP_temperature;BMP_pressure;BME280_temperature;BME280_humidity;BME280_pressure;Samples;Min_cycle;Max_cycle;Signal;HPM_P1;HPM_P2
2023/08/03 00:01:47;;;;;;;;;3.25;1.00;;;;;;;;5040508;28;45781;-81
2023/08/03 00:04:12;;;;;;;;;1.00;0.67;;;;;;;;5041358;28;45915;-80
2023/08/03 00:06:38;;;;;;;;;3.00;2.25;;;;;;;;5039062;28;45711;-82
2023/08/03 00:09:03;;;;;;;;;2.50;1.25;;;;;;;;5036321;28;46069;-81
2023/08/03 00:11:28;;;;;;;;;2.00;2.00;;;;;;;;5035646;28;45706;-81
2023/08/03 00:13:53;;;;;;;;;3.33;1.00;;;;;;;;5049020;28;45920;-82
2023/08/03 00:16:19;;;;;;;;;1.00;1.00;;;;;;;;5053954;28;45553;-81
2023/08/03 00:18:44;;;;;;;;;6.33;2.33;;;;;;;;5053224;28;45457;-79
2023/08/03 00:21:09;;;;;;;;;4.50;3.25;;;;;;;;5053924;28;45980;-79
2023/08/03 00:23:35;;;;;;;;;2.00;2.00;;;;;;;;5051181;28;45440;-75
2023/08/03 00:26:03;;;;;;;;;2.50;2.50;;;;;;;;5038970;28;47037;-78
2023/08/03 00:28:28;;;;;;;;;3.67;2.00;;;;;;;;5045432;28;48140;-77
2023/08/03 00:30:53;;;;;;;;;2.50;1.00;;;;;;;;5049184;28;45437;-75
2023/08/03 00:33:19;;;;;;;;;2.00;1.00;;;;;;;;5052411;28;45718;-77
2023/08/03 00:35:44;;;;;;;;;3.00;2.00;;;;;;;;5050624;28;45748;-77
2023/08/03 00:38:09;;;;;;;;;3.25;1.00;;;;;;;;5050019;28;45497;-77
2023/08/03 00:40:34;;;;;;;;;6.00;2.00;;;;;;;;5053162;28;45828;-77
2023/08/03 00:43:04;;;;;;;;;1.75;1.00;;;;;;;;5054851;28;45391;-81
2023/08/03 00:45:29;;;;;;;;;1.25;1.25;;;;;;;;5072454;28;45569;-81
2023/08/03 00:47:54;;;;;;;;;2.25;1.25;;;;;;;;5058804;28;47715;-81
2023/08/03 00:50:20;;;;;;;;;3.25;2.00;;;;;;;;5075161;28;45455;-80
2023/08/03 00:52:45;;;;;;;;;1.50;1.50;;;;;;;;5078131;28;45409;-77
2023/08/03 00:55:10;;;;;;;;;1.75;1.00;;;;;;;;5056181;28;47010;-77
2023/08/03 00:57:37;;;;;;;;;4.00;3.00;;;;;;;;5055345;28;46352;-81
2023/08/03 01:00:03;;;;;;;;;1.00;1.00;;;;;;;;5071420;28;45435;-78
2023/08/03 01:02:28;;;;;;;;;5.00;2.33;;;;;;;;5070800;28;45734;-76
2023/08/03 01:04:53;;;;;;;;;2.00;2.00;;;;;;;;5067673;28;45709;-77
2023/08/03 01:07:21;;;;;;;;;2.00;2.00;;;;;;;;5072813;28;45759;-80
2023/08/03 01:09:46;;;;;;;;;6.25;2.75;;;;;;;;5072914;28;45461;-79
2023/08/03 01:12:16;;;;;;;;;0.25;0.25;;;;;;;;5073624;28;45547;-80
2023/08/03 01:14:42;;;;;;;;;3.67;1.00;;;;;;;;5051867;28;46091;-76
2023/08/03 01:17:08;;;;;;;;;2.75;1.50;;;;;;;;5061800;28;45621;-81
2023/08/03 01:19:33;;;;;;;;;1.75;1.75;;;;;;;;5053995;28;46381;-78
2023/08/03 01:22:05;;;;;;;;;2.00;0.00;;;;;;;;5075685;28;45514;-86
2023/08/03 01:25:04;;;;;;;;;1.50;1.00;;;;;;;;5076134;28;45595;-88
2023/08/03 01:30:38;;;;;;;;;5.25;1.25;;;;;;;;5077475;28;46338;-85
2023/08/03 01:33:28;;;;;;;;;2.33;1.00;;;;;;;;5074391;28;45561;-81
2023/08/03 01:35:53;;;;;;;;;0.33;0.33;;;;;;;;5052535;28;47382;-79
2023/08/03 01:38:19;;;;;;;;;2.67;1.67;;;;;;;;5065181;28;45425;-82
2023/08/03 01:40:44;;;;;;;;;7.67;0.33;;;;;;;;5058504;28;45352;-80
2023/08/03 01:43:09;;;;;;;;;1.00;1.00;;;;;;;;5052522;28;45761;-80
2023/08/03 01:45:36;;;;;;;;;0.25;0.25;;;;;;;;5056890;28;45517;-81
2023/08/03 01:48:01;;;;;;;;;2.00;1.00;;;;;;;;5072220;28;46035;-80
2023/08/03 01:50:31;;;;;;;;;0.67;0.67;;;;;;;;5066036;28;45425;-88
2023/08/03 01:52:57;;;;;;;;;4.00;1.00;;;;;;;;5081265;28;45910;-86
2023/08/03 01:55:22;;;;;;;;;3.00;2.00;;;;;;;;5084366;28;45517;-87
2023/08/03 01:57:47;;;;;;;;;1.00;1.00;;;;;;;;5067915;28;47298;-85
2023/08/03 02:00:13;;;;;;;;;2.00;0.67;;;;;;;;5069127;28;45744;-87
2023/08/03 02:02:38;;;;;;;;;1.67;1.00;;;;;;;;5076542;28;45506;-87
2023/08/03 02:05:06;;;;;;;;;2.00;1.00;;;;;;;;5057402;28;45858;-84
2023/08/03 02:07:44;;;;;;;;;2.00;1.00;;;;;;;;5059898;28;47265;-83
2023/08/03 02:10:10;;;;;;;;;1.00;1.00;;;;;;;;5061797;28;45536;-87
2023/08/03 02:12:35;;;;;;;;;3.00;1.00;;;;;;;;5063115;28;45528;-84
2023/08/03 02:15:01;;;;;;;;;1.33;1.33;;;;;;;;5075717;28;45459;-87
2023/08/03 02:17:29;;;;;;;;;1.00;0.67;;;;;;;;5054190;28;46400;-86
2023/08/03 02:19:55;;;;;;;;;4.00;1.00;;;;;;;;5057211;28;45519;-86
2023/08/03 02:22:20;;;;;;;;;1.00;1.00;;;;;;;;5064344;28;45558;-86
2023/08/03 02:24:46;;;;;;;;;2.00;1.00;;;;;;;;5088952;28;45721;-86
2023/08/03 02:27:12;;;;;;;;;1.00;1.00;;;;;;;;5094300;28;45661;-86
2023/08/03 02:29:39;;;;;;;;;4.00;0.50;;;;;;;;5096366;28;44826;-86
2023/08/03 02:32:05;;;;;;;;;0.00;0.00;;;;;;;;5090967;28;44740;-86
2023/08/03 02:34:32;;;;;;;;;3.00;1.00;;;;;;;;5079858;28;46105;-90
2023/08/03 02:36:58;;;;;;;;;7.00;2.00;;;;;;;;5074366;28;46863;-84
2023/08/03 02:39:23;;;;;;;;;4.00;1.00;;;;;;;;5064621;28;45689;-85
2023/08/03 02:41:49;;;;;;;;;3.50;1.50;;;;;;;;5083807;28;45367;-84
2023/08/03 02:44:14;;;;;;;;;2.00;1.00;;;;;;;;5064828;28;46046;-86
2023/08/03 02:46:40;;;;;;;;;1.67;1.00;;;;;;;;5084382;28;45513;-84
2023/08/03 02:49:06;;;;;;;;;2.67;1.33;;;;;;;;5066294;28;45447;-84
2023/08/03 02:51:31;;;;;;;;;1.00;1.00;;;;;;;;5083713;28;45446;-84
2023/08/03 02:53:56;;;;;;;;;1.00;1.00;;;;;;;;5063993;28;46018;-85
2023/08/03 02:56:31;;;;;;;;;0.00;0.00;;;;;;;;5061319;28;47090;-85
2023/08/03 02:58:56;;;;;;;;;1.33;0.33;;;;;;;;5078431;28;45440;-83
2023/08/03 03:01:22;;;;;;;;;1.67;1.67;;;;;;;;5050960;28;45880;-84
2023/08/03 03:03:47;;;;;;;;;0.00;0.00;;;;;;;;5057629;28;45823;-85
2023/08/03 03:06:14;;;;;;;;;1.33;1.33;;;;;;;;5061403;28;46760;-85
2023/08/03 03:08:42;;;;;;;;;0.75;0.75;;;;;;;;5066731;28;45565;-82
2023/08/03 03:11:07;;;;;;;;;0.00;0.00;;;;;;;;5072860;28;45755;-81
2023/08/03 03:13:32;;;;;;;;;0.00;0.00;;;;;;;;5054660;28;45461;-78
2023/08/03 03:15:57;;;;;;;;;0.50;0.00;;;;;;;;5046469;28;47869;-80
2023/08/03 03:18:23;;;;;;;;;0.67;0.67;;;;;;;;5055124;28;45543;-79
2023/08/03 03:20:48;;;;;;;;;0.50;0.50;;;;;;;;5076114;28;45441;-80
2023/08/03 03:23:13;;;;;;;;;0.67;0.67;;;;;;;;5056021;28;46318;-80
2023/08/03 03:25:39;;;;;;;;;1.00;0.50;;;;;;;;5074274;28;45669;-80
2023/08/03 03:28:04;;;;;;;;;1.00;0.00;;;;;;;;5074295;28;45852;-80
2023/08/03 03:30:30;;;;;;;;;2.00;1.00;;;;;;;;5070705;28;45677;-79
2023/08/03 03:32:55;;;;;;;;;2.50;0.00;;;;;;;;5074766;28;45611;-81
2023/08/03 03:35:21;;;;;;;;;1.00;1.00;;;;;;;;5050777;28;45548;-81
2023/08/03 03:37:46;;;;;;;;;0.00;0.00;;;;;;;;5072815;28;45556;-79
2023/08/03 03:40:11;;;;;;;;;0.00;0.00;;;;;;;;5066255;28;45748;-81
2023/08/03 03:42:36;;;;;;;;;2.00;0.00;;;;;;;;5090789;27;45789;-81
2023/08/03 03:45:01;;;;;;;;;0.00;0.00;;;;;;;;5073229;28;45431;-79
2023/08/03 03:47:27;;;;;;;;;1.00;0.00;;;;;;;;5070194;28;45752;-80
2023/08/03 03:49:52;;;;;;;;;1.33;0.00;;;;;;;;5054925;28;45510;-80
2023/08/03 03:52:17;;;;;;;;;0.25;0.25;;;;;;;;5072245;28;45544;-79
2023/08/03 03:54:43;;;;;;;;;1.00;1.00;;;;;;;;5056165;28;47029;-79
2023/08/03 03:57:08;;;;;;;;;0.00;0.00;;;;;;;;5053866;28;45865;-79
2023/08/03 03:59:33;;;;;;;;;0.75;0.00;;;;;;;;5044756;28;45941;-80
2023/08/03 04:01:58;;;;;;;;;0.33;0.33;;;;;;;;5056053;28;46670;-78
2023/08/03 04:04:24;;;;;;;;;1.67;0.00;;;;;;;;5074823;28;45560;-80
2023/08/03 04:06:49;;;;;;;;;1.00;1.00;;;;;;;;5054158;28;45690;-81
2023/08/03 04:09:14;;;;;;;;;1.25;0.25;;;;;;;;5073124;28;45653;-80
2023/08/03 04:11:39;;;;;;;;;0.75;0.00;;;;;;;;5052647;28;45727;-81
2023/08/03 04:14:05;;;;;;;;;0.75;0.75;;;;;;;;5072941;28;46333;-80
2023/08/03 04:16:30;;;;;;;;;0.00;0.00;;;;;;;;5050245;28;45810;-81
2023/08/03 04:18:55;;;;;;;;;1.25;0.00;;;;;;;;5054008;28;45786;-81
2023/08/03 04:21:20;;;;;;;;;0.33;0.33;;;;;;;;5086291;28;45573;-79
2023/08/03 04:23:46;;;;;;;;;1.00;0.00;;;;;;;;5072327;28;45234;-79
2023/08/03 04:26:11;;;;;;;;;0.00;0.00;;;;;;;;5088865;28;44815;-79
2023/08/03 04:28:36;;;;;;;;;0.75;0.75;;;;;;;;5089276;28;45545;-79
2023/08/03 04:31:01;;;;;;;;;2.00;1.00;;;;;;;;5071061;28;46860;-79
2023/08/03 04:33:27;;;;;;;;;1.25;0.00;;;;;;;;5065991;28;47066;-79
2023/08/03 04:35:52;;;;;;;;;0.50;0.00;;;;;;;;5088038;28;45390;-80
2023/08/03 04:38:17;;;;;;;;;2.00;2.00;;;;;;;;5069984;28;44873;-80
2023/08/03 04:40:42;;;;;;;;;0.00;0.00;;;;;;;;5089355;28;45159;-80
2023/08/03 04:43:08;;;;;;;;;1.33;0.33;;;;;;;;5089329;28;45268;-78
2023/08/03 04:45:33;;;;;;;;;10.33;8.33;;;;;;;;5075694;28;44881;-80
2023/08/03 04:47:58;;;;;;;;;1.00;1.00;;;;;;;;5088869;28;45489;-80
2023/08/03 04:50:24;;;;;;;;;1.00;1.00;;;;;;;;5064369;28;45872;-82
2023/08/03 04:52:49;;;;;;;;;1.00;1.00;;;;;;;;5067645;28;46991;-81
2023/08/03 04:55:14;;;;;;;;;3.00;2.00;;;;;;;;5082525;28;44864;-79
2023/08/03 04:57:39;;;;;;;;;1.00;1.00;;;;;;;;5072438;28;45301;-80
2023/08/03 05:00:05;;;;;;;;;4.25;2.00;;;;;;;;5089962;28;44722;-81
2023/08/03 05:02:30;;;;;;;;;2.00;1.00;;;;;;;;5071908;28;47029;-80
2023/08/03 05:04:55;;;;;;;;;1.00;1.00;;;;;;;;5083369;28;45306;-80
2023/08/03 05:07:21;;;;;;;;;0.75;0.00;;;;;;;;5072247;28;44834;-79
2023/08/03 05:09:46;;;;;;;;;0.50;0.00;;;;;;;;5089941;28;44873;-81
2023/08/03 05:12:12;;;;;;;;;0.50;0.50;;;;;;;;5080981;28;45320;-78
2023/08/03 05:14:37;;;;;;;;;1.00;1.00;;;;;;;;5085200;28;45162;-81
2023/08/03 05:17:02;;;;;;;;;1.00;1.00;;;;;;;;5053874;28;44950;-81
2023/08/03 05:19:27;;;;;;;;;1.00;1.00;;;;;;;;5062899;28;45415;-80
2023/08/03 05:21:53;;;;;;;;;1.33;1.33;;;;;;;;5083745;28;47230;-79
2023/08/03 05:24:18;;;;;;;;;1.00;1.00;;;;;;;;5074650;28;45395;-79
2023/08/03 05:26:44;;;;;;;;;2.00;0.25;;;;;;;;5073631;28;45082;-80
2023/08/03 05:29:09;;;;;;;;;1.00;0.00;;;;;;;;5093505;28;45675;-81
2023/08/03 05:31:34;;;;;;;;;0.50;0.00;;;;;;;;5094718;28;45151;-82
2023/08/03 05:34:00;;;;;;;;;1.67;1.00;;;;;;;;5087057;28;44834;-78
2023/08/03 05:36:25;;;;;;;;;1.00;1.00;;;;;;;;5060695;28;45454;-76
2023/08/03 05:38:52;;;;;;;;;2.00;1.00;;;;;;;;5081604;28;45453;-78
2023/08/03 05:41:21;;;;;;;;;2.00;0.25;;;;;;;;5064487;28;48484;-77
2023/08/03 05:43:46;;;;;;;;;1.00;1.00;;;;;;;;5075254;28;45646;-77
2023/08/03 05:46:13;;;;;;;;;1.50;1.00;;;;;;;;5056051;28;45529;-77
2023/08/03 05:48:38;;;;;;;;;2.00;1.00;;;;;;;;5064422;28;46226;-79
2023/08/03 05:51:04;;;;;;;;;2.33;1.33;;;;;;;;5068024;28;46554;-76
2023/08/03 05:53:29;;;;;;;;;1.00;1.00;;;;;;;;5066489;28;45169;-75
2023/08/03 05:55:54;;;;;;;;;0.75;0.75;;;;;;;;5058004;28;45825;-74
2023/08/03 05:58:20;;;;;;;;;1.25;1.25;;;;;;;;5073185;28;46030;-72
2023/08/03 06:00:49;;;;;;;;;2.00;2.00;;;;;;;;5080367;28;45897;-74
2023/08/03 06:03:16;;;;;;;;;1.00;1.00;;;;;;;;5053209;28;45942;-75
2023/08/03 06:06:00;;;;;;;;;2.00;2.00;;;;;;;;5069883;28;45493;-74
2023/08/03 06:08:28;;;;;;;;;2.00;0.75;;;;;;;;5060772;28;45437;-77
2023/08/03 06:14:00;;;;;;;;;1.00;0.00;;;;;;;;5071962;28;45430;-82
2023/08/03 06:16:28;;;;;;;;;1.33;1.33;;;;;;;;5094020;28;45241;-80
2023/08/03 06:18:58;;;;;;;;;2.00;2.00;;;;;;;;5092258;28;44827;-78
2023/08/03 06:21:37;;;;;;;;;3.00;1.00;;;;;;;;5075030;28;46714;-78
2023/08/03 06:24:03;;;;;;;;;2.00;2.00;;;;;;;;5082592;28;45294;-79
2023/08/03 06:26:31;;;;;;;;;1.25;1.25;;;;;;;;5082476;28;45505;-79
2023/08/03 06:28:58;;;;;;;;;4.00;1.33;;;;;;;;5061945;28;45769;-77
2023/08/03 06:31:29;;;;;;;;;2.00;1.00;;;;;;;;5082158;28;46580;-79
2023/08/03 06:33:55;;;;;;;;;3.75;1.00;;;;;;;;5069260;28;45607;-78
2023/08/03 06:36:25;;;;;;;;;0.75;0.25;;;;;;;;5077583;28;45706;-78
2023/08/03 06:38:51;;;;;;;;;1.75;0.50;;;;;;;;5062037;28;46589;-79
2023/08/03 06:41:16;;;;;;;;;1.00;1.00;;;;;;;;5068497;28;45639;-81
2023/08/03 06:43:56;;;;;;;;;2.00;1.00;;;;;;;;5059282;28;45415;-85
2023/08/03 06:46:22;;;;;;;;;2.00;1.00;;;;;;;;5046499;28;46109;-79
2023/08/03 06:48:48;;;;;;;;;1.50;0.50;;;;;;;;5072253;28;46345;-80
2023/08/03 06:51:13;;;;;;;;;5.00;2.00;;;;;;;;5054085;28;46793;-81
2023/08/03 06:53:40;;;;;;;;;2.00;2.00;;;;;;;;5054961;28;46061;-81
2023/08/03 06:56:06;;;;;;;;;2.25;1.00;;;;;;;;5038563;28;45850;-79
2023/08/03 06:58:33;;;;;;;;;5.00;4.00;;;;;;;;5062354;28;45638;-81
2023/08/03 07:00:58;;;;;;;;;2.00;2.00;;;;;;;;5066808;28;45364;-81
2023/08/03 07:03:25;;;;;;;;;2.25;1.00;;;;;;;;5066702;28;45742;-86
2023/08/03 07:06:06;;;;;;;;;2.50;2.00;;;;;;;;5053448;28;45669;-84
2023/08/03 07:08:32;;;;;;;;;1.00;1.00;;;;;;;;5072615;28;45726;-80
2023/08/03 07:10:57;;;;;;;;;3.50;1.00;;;;;;;;5074707;28;45497;-80
2023/08/03 07:13:23;;;;;;;;;1.00;1.00;;;;;;;;5057314;28;45555;-83
2023/08/03 07:15:49;;;;;;;;;1.25;1.25;;;;;;;;5069855;28;45356;-78
2023/08/03 07:18:15;;;;;;;;;2.00;1.00;;;;;;;;5075834;28;45839;-85
2023/08/03 07:20:42;;;;;;;;;4.50;3.00;;;;;;;;5072644;28;45731;-81
2023/08/03 07:23:10;;;;;;;;;4.00;2.00;;;;;;;;5055010;28;45483;-83
2023/08/03 07:25:39;;;;;;;;;2.00;2.00;;;;;;;;5055373;28;45690;-85
2023/08/03 07:28:05;;;;;;;;;2.50;2.00;;;;;;;;5055747;28;45841;-80
2023/08/03 07:30:34;;;;;;;;;2.75;1.50;;;;;;;;5051134;28;47022;-83
2023/08/03 07:32:59;;;;;;;;;1.25;1.00;;;;;;;;5070020;28;45469;-85
2023/08/03 07:35:25;;;;;;;;;3.00;2.00;;;;;;;;5074020;28;45869;-84
2023/08/03 07:37:50;;;;;;;;;1.00;1.00;;;;;;;;5053758;28;46139;-84
2023/08/03 07:40:15;;;;;;;;;1.00;1.00;;;;;;;;5072565;28;47195;-82
2023/08/03 07:42:40;;;;;;;;;1.00;1.00;;;;;;;;5071101;28;45705;-82
2023/08/03 07:45:06;;;;;;;;;0.25;0.25;;;;;;;;5073093;28;46073;-83
2023/08/03 07:47:31;;;;;;;;;3.50;2.00;;;;;;;;5070666;28;45601;-82
2023/08/03 07:49:57;;;;;;;;;3.75;2.50;;;;;;;;5054599;28;48540;-83
2023/08/03 07:52:23;;;;;;;;;0.50;0.50;;;;;;;;5055172;28;45673;-83
2023/08/03 07:54:48;;;;;;;;;1.25;1.25;;;;;;;;5074597;28;45268;-84
2023/08/03 07:57:15;;;;;;;;;2.75;1.00;;;;;;;;5051208;28;45786;-84
2023/08/03 07:59:41;;;;;;;;;1.00;1.00;;;;;;;;5053641;28;47193;-82
2023/08/03 08:02:10;;;;;;;;;1.50;0.00;;;;;;;;5075856;28;45505;-82
2023/08/03 08:04:35;;;;;;;;;1.75;1.00;;;;;;;;5057015;28;45836;-83
2023/08/03 08:07:00;;;;;;;;;2.75;1.00;;;;;;;;5073196;28;45493;-81
2023/08/03 08:09:26;;;;;;;;;1.00;1.00;;;;;;;;5065360;28;46294;-83
2023/08/03 08:11:51;;;;;;;;;1.00;1.00;;;;;;;;5070062;28;45697;-83
2023/08/03 08:14:16;;;;;;;;;1.00;1.00;;;;;;;;5072616;28;45351;-80
2023/08/03 08:16:42;;;;;;;;;2.00;1.00;;;;;;;;5055054;28;45471;-83
2023/08/03 08:19:07;;;;;;;;;0.25;0.25;;;;;;;;5068716;28;46427;-82
2023/08/03 08:21:33;;;;;;;;;2.25;1.00;;;;;;;;5069119;28;46232;-83
2023/08/03 08:24:00;;;;;;;;;3.50;1.00;;;;;;;;5055580;28;45617;-82
2023/08/03 08:26:25;;;;;;;;;2.75;1.25;;;;;;;;5061351;28;45524;-81
2023/08/03 08:28:56;;;;;;;;;1.75;1.75;;;;;;;;5053742;28;47429;-82
2023/08/03 08:31:21;;;;;;;;;1.00;1.00;;;;;;;;5054491;28;45858;-81
2023/08/03 08:33:47;;;;;;;;;2.75;2.00;;;;;;;;5074603;28;45819;-82
2023/08/03 08:36:12;;;;;;;;;4.00;3.00;;;;;;;;5055578;28;45845;-83
2023/08/03 08:38:37;;;;;;;;;1.50;1.00;;;;;;;;5055896;28;47104;-82
2023/08/03 08:41:03;;;;;;;;;1.75;0.75;;;;;;;;5044865;28;45796;-83
2023/08/03 08:43:29;;;;;;;;;0.00;0.00;;;;;;;;5057291;28;45707;-82
2023/08/03 08:45:54;;;;;;;;;3.50;2.00;;;;;;;;5055683;28;45737;-79
2023/08/03 08:48:19;;;;;;;;;0.50;0.50;;;;;;;;5057004;28;47035;-82
2023/08/03 08:50:45;;;;;;;;;0.25;0.25;;;;;;;;5078033;28;45559;-82
2023/08/03 08:53:12;;;;;;;;;1.25;1.00;;;;;;;;5064882;28;45543;-82
2023/08/03 08:55:38;;;;;;;;;3.75;1.00;;;;;;;;5053956;28;47060;-84
2023/08/03 08:58:03;;;;;;;;;1.75;1.00;;;;;;;;5064826;28;45513;-83
2023/08/03 09:00:29;;;;;;;;;1.00;1.00;;;;;;;;5075199;28;45888;-83
2023/08/03 09:02:55;;;;;;;;;0.50;0.50;;;;;;;;5066789;28;44776;-84
2023/08/03 09:05:22;;;;;;;;;2.25;0.75;;;;;;;;5058906;28;45574;-82
2023/08/03 09:07:58;;;;;;;;;0.75;0.75;;;;;;;;5065541;28;47459;-85
2023/08/03 09:10:23;;;;;;;;;2.25;1.25;;;;;;;;5058650;28;45818;-79
2023/08/03 09:12:52;;;;;;;;;1.00;1.00;;;;;;;;5055620;28;46487;-81
2023/08/03 09:15:18;;;;;;;;;1.00;1.00;;;;;;;;5068857;28;45948;-81
2023/08/03 09:17:47;;;;;;;;;1.00;1.00;;;;;;;;5061331;28;46717;-83
2023/08/03 09:20:32;;;;;;;;;1.00;1.00;;;;;;;;5055229;28;45863;-82
2023/08/03 09:22:58;;;;;;;;;2.00;1.00;;;;;;;;5075247;28;45752;-80
2023/08/03 09:25:23;;;;;;;;;0.75;0.75;;;;;;;;5065582;28;45509;-81
2023/08/03 09:27:50;;;;;;;;;1.75;1.50;;;;;;;;5054635;28;48573;-80
2023/08/03 09:30:15;;;;;;;;;0.00;0.00;;;;;;;;5069422;28;45873;-79
2023/08/03 09:32:42;;;;;;;;;1.50;0.75;;;;;;;;5058149;28;45284;-78
2023/08/03 09:35:16;;;;;;;;;0.25;0.00;;;;;;;;5055695;28;47094;-83
2023/08/03 09:37:45;;;;;;;;;0.50;0.50;;;;;;;;5055543;28;48107;-82
2023/08/03 09:40:11;;;;;;;;;3.00;1.75;;;;;;;;5076572;28;45363;-83
2023/08/03 09:42:37;;;;;;;;;1.00;1.00;;;;;;;;5060064;28;45944;-86
2023/08/03 09:45:03;;;;;;;;;1.00;1.00;;;;;;;;5075678;28;45580;-83
2023/08/03 09:47:32;;;;;;;;;0.50;0.50;;;;;;;;5058365;28;46955;-83
2023/08/03 09:49:58;;;;;;;;;1.00;0.00;;;;;;;;5049889;28;45717;-82
2023/08/03 09:52:28;;;;;;;;;3.00;1.75;;;;;;;;5059662;28;45837;-84
2023/08/03 09:55:12;;;;;;;;;0.00;0.00;;;;;;;;5058875;28;45490;-84
2023/08/03 09:57:39;;;;;;;;;1.00;1.00;;;;;;;;5064331;28;46527;-82
2023/08/03 10:00:06;;;;;;;;;0.00;0.00;;;;;;;;5044760;28;45737;-84
2023/08/03 10:02:45;;;;;;;;;0.00;0.00;;;;;;;;5075556;28;45475;-83
2023/08/03 10:05:27;;;;;;;;;0.00;0.00;;;;;;;;5088135;28;45523;-85
2023/08/03 10:08:06;;;;;;;;;0.00;0.00;;;;;;;;5060859;28;47690;-84
2023/08/03 10:10:35;;;;;;;;;0.60;0.00;;;;;;;;5069992;28;45179;-83
2023/08/03 10:13:06;;;;;;;;;0.00;0.00;;;;;;;;5083807;28;45297;-83
2023/08/03 10:15:32;;;;;;;;;1.25;0.75;;;;;;;;5068808;28;46085;-84
2023/08/03 10:18:03;;;;;;;;;0.25;0.25;;;;;;;;5082907;28;45790;-80
2023/08/03 10:20:29;;;;;;;;;1.80;0.20;;;;;;;;5079587;28;45566;-80
2023/08/03 10:23:16;;;;;;;;;1.75;0.50;;;;;;;;5076841;28;45441;-81
2023/08/03 10:25:52;;;;;;;;;0.75;0.50;;;;;;;;5068131;28;45493;-80
2023/08/03 10:28:18;;;;;;;;;0.00;0.00;;;;;;;;5072238;28;45378;-79
2023/08/03 10:31:03;;;;;;;;;2.00;2.00;;;;;;;;5059763;28;45964;-81
2023/08/03 10:33:47;;;;;;;;;1.50;1.50;;;;;;;;5046625;28;45478;-80
2023/08/03 10:36:28;;;;;;;;;1.25;0.25;;;;;;;;5078101;28;45406;-80
2023/08/03 10:38:54;;;;;;;;;1.00;1.00;;;;;;;;5064744;28;46577;-82
2023/08/03 10:41:23;;;;;;;;;0.00;0.00;;;;;;;;5063690;28;45493;-83
2023/08/03 10:44:09;;;;;;;;;0.00;0.00;;;;;;;;5076136;28;45440;-82
2023/08/03 10:46:45;;;;;;;;;2.00;1.00;;;;;;;;5051423;28;45966;-80
2023/08/03 10:49:19;;;;;;;;;1.00;1.00;;;;;;;;5064530;28;46790;-83
2023/08/03 10:51:52;;;;;;;;;2.00;1.00;;;;;;;;5070979;28;45542;-81
2023/08/03 10:54:18;;;;;;;;;0.00;0.00;;;;;;;;5073923;28;45648;-85
2023/08/03 10:57:03;;;;;;;;;0.75;0.00;;;;;;;;5073004;28;45458;-81
2023/08/03 10:59:29;;;;;;;;;0.25;0.25;;;;;;;;5065551;28;45630;-82
2023/08/03 11:01:54;;;;;;;;;0.00;0.00;;;;;;;;5076503;28;45450;-81
2023/08/03 11:04:23;;;;;;;;;1.00;1.00;;;;;;;;5075698;28;45855;-82
2023/08/03 11:06:48;;;;;;;;;0.25;0.25;;;;;;;;5057250;28;45686;-79
2023/08/03 11:09:13;;;;;;;;;2.00;1.00;;;;;;;;5074067;28;45833;-81
2023/08/03 11:11:40;;;;;;;;;0.25;0.25;;;;;;;;5074828;28;45916;-81
2023/08/03 11:14:06;;;;;;;;;0.50;0.00;;;;;;;;5046033;28;45824;-81
2023/08/03 11:16:33;;;;;;;;;0.00;0.00;;;;;;;;5046421;28;45932;-82
2023/08/03 11:18:58;;;;;;;;;1.00;0.00;;;;;;;;5076885;28;45464;-81
2023/08/03 11:21:23;;;;;;;;;1.00;1.00;;;;;;;;5074328;28;45424;-81
2023/08/03 11:23:50;;;;;;;;;1.00;1.00;;;;;;;;5056080;28;45600;-80
2023/08/03 11:26:16;;;;;;;;;1.00;1.00;;;;;;;;5067675;28;45383;-81
2023/08/03 11:28:44;;;;;;;;;0.00;0.00;;;;;;;;5075054;28;45836;-82
2023/08/03 11:31:16;;;;;;;;;1.50;0.25;;;;;;;;5075515;28;45543;-79
2023/08/03 11:33:51;;;;;;;;;0.75;0.00;;;;;;;;5056708;28;45460;-81
2023/08/03 11:36:20;;;;;;;;;3.00;1.25;;;;;;;;5056278;28;46172;-81
2023/08/03 11:38:45;;;;;;;;;0.00;0.00;;;;;;;;5058174;28;46048;-82
2023/08/03 11:41:12;;;;;;;;;0.50;0.50;;;;;;;;5071275;28;45764;-81
2023/08/03 11:43:38;;;;;;;;;0.00;0.00;;;;;;;;5055406;28;45598;-80
2023/08/03 11:46:04;;;;;;;;;1.00;1.00;;;;;;;;5043819;28;45741;-80
2023/08/03 11:48:29;;;;;;;;;2.50;1.00;;;;;;;;5066655;28;45789;-82
2023/08/03 11:50:55;;;;;;;;;0.75;0.00;;;;;;;;5074137;28;46371;-80
2023/08/03 11:53:27;;;;;;;;;0.50;0.50;;;;;;;;5074372;28;45413;-82
2023/08/03 11:55:52;;;;;;;;;1.00;1.00;;;;;;;;5074873;28;45912;-80
2023/08/03 11:58:24;;;;;;;;;0.00;0.00;;;;;;;;5057014;28;46352;-80
2023/08/03 12:00:49;;;;;;;;;1.50;0.50;;;;;;;;5073798;28;45597;-81
2023/08/03 12:03:18;;;;;;;;;1.00;1.00;;;;;;;;5074398;28;45383;-80
2023/08/03 12:05:52;;;;;;;;;0.25;0.00;;;;;;;;5056073;28;46325;-80
2023/08/03 12:08:21;;;;;;;;;0.50;0.50;;;;;;;;5057068;28;47440;-81
2023/08/03 12:11:00;;;;;;;;;1.00;1.00;;;;;;;;5073514;28;45415;-82
2023/08/03 12:13:25;;;;;;;;;0.00;0.00;;;;;;;;5055169;28;45462;-81
2023/08/03 12:15:50;;;;;;;;;1.75;0.25;;;;;;;;5046409;28;45979;-81
2023/08/03 12:18:15;;;;;;;;;1.00;1.00;;;;;;;;5069208;28;46598;-80
2023/08/03 12:20:41;;;;;;;;;1.75;1.75;;;;;;;;5073519;28;45435;-81
2023/08/03 12:23:06;;;;;;;;;1.25;1.25;;;;;;;;5074057;28;45604;-81
2023/08/03 12:25:31;;;;;;;;;0.00;0.00;;;;;;;;5071243;28;45457;-80
2023/08/03 12:27:57;;;;;;;;;0.00;0.00;;;;;;;;5072137;28;46091;-82
2023/08/03 12:30:22;;;;;;;;;1.00;0.00;;;;;;;;5074217;28;44796;-79
2023/08/03 12:32:47;;;;;;;;;1.50;0.00;;;;;;;;5075562;28;44754;-81
2023/08/03 12:35:12;;;;;;;;;0.00;0.00;;;;;;;;5067520;28;45883;-80
2023/08/03 12:37:40;;;;;;;;;0.00;0.00;;;;;;;;5069749;28;45621;-81
2023/08/03 12:40:06;;;;;;;;;2.00;1.00;;;;;;;;5074633;28;45426;-80
2023/08/03 12:42:31;;;;;;;;;1.75;0.00;;;;;;;;5074717;28;45879;-79
2023/08/03 12:45:00;;;;;;;;;0.00;0.00;;;;;;;;5074812;28;45330;-80
2023/08/03 12:47:25;;;;;;;;;0.00;0.00;;;;;;;;5054844;28;48121;-80
2023/08/03 12:49:52;;;;;;;;;0.50;0.00;;;;;;;;5064331;28;45588;-81
2023/08/03 12:52:18;;;;;;;;;0.00;0.00;;;;;;;;5067590;28;45659;-80
2023/08/03 12:54:43;;;;;;;;;0.00;0.00;;;;;;;;5069908;28;45662;-80
2023/08/03 12:57:09;;;;;;;;;0.50;0.00;;;;;;;;5061645;28;45865;-80
2023/08/03 12:59:34;;;;;;;;;1.00;0.00;;;;;;;;5073072;28;45394;-79
2023/08/03 13:01:59;;;;;;;;;2.00;1.00;;;;;;;;5054443;28;45801;-81
2023/08/03 13:04:24;;;;;;;;;0.00;0.00;;;;;;;;5072982;28;45431;-82
2023/08/03 13:06:49;;;;;;;;;0.50;0.00;;;;;;;;5064943;28;45770;-81
2023/08/03 13:09:15;;;;;;;;;1.00;0.00;;;;;;;;5065954;28;45052;-80
2023/08/03 13:11:40;;;;;;;;;0.00;0.00;;;;;;;;5071589;28;45379;-81
2023/08/03 13:14:05;;;;;;;;;0.00;0.00;;;;;;;;5063366;28;45583;-80
2023/08/03 13:16:30;;;;;;;;;0.00;0.00;;;;;;;;5041832;28;46284;-81
2023/08/03 13:18:56;;;;;;;;;0.00;0.00;;;;;;;;5071482;28;45828;-81
2023/08/03 13:21:21;;;;;;;;;0.00;0.00;;;;;;;;5073234;28;45336;-79
2023/08/03 13:23:49;;;;;;;;;0.00;0.00;;;;;;;;5072852;28;45429;-81
2023/08/03 13:26:14;;;;;;;;;1.00;0.00;;;;;;;;5055622;28;47425;-80
2023/08/03 13:28:39;;;;;;;;;0.00;0.00;;;;;;;;5074093;28;45490;-80
2023/08/03 13:31:05;;;;;;;;;0.00;0.00;;;;;;;;5063117;28;45854;-81
2023/08/03 13:33:30;;;;;;;;;0.00;0.00;;;;;;;;5056532;28;47136;-80
2023/08/03 13:35:55;;;;;;;;;0.00;0.00;;;;;;;;5070701;28;45631;-79
2023/08/03 13:38:21;;;;;;;;;1.25;1.00;;;;;;;;5068799;28;45410;-82
2023/08/03 13:40:47;;;;;;;;;0.00;0.00;;;;;;;;5073094;28;45687;-82
2023/08/03 13:43:13;;;;;;;;;2.00;2.00;;;;;;;;5072660;28;45439;-79
2023/08/03 13:45:38;;;;;;;;;3.00;1.50;;;;;;;;5057335;28;46910;-80
2023/08/03 13:48:04;;;;;;;;;3.00;1.25;;;;;;;;5054597;28;45390;-83
2023/08/03 13:50:29;;;;;;;;;2.75;2.25;;;;;;;;5051720;28;45488;-81
2023/08/03 13:52:54;;;;;;;;;2.50;2.50;;;;;;;;5057261;28;46999;-80
2023/08/03 13:55:20;;;;;;;;;1.25;1.00;;;;;;;;5057946;28;48366;-81
2023/08/03 13:57:45;;;;;;;;;1.00;1.00;;;;;;;;5076243;28;45522;-81
2023/08/03 14:00:10;;;;;;;;;4.75;3.75;;;;;;;;5076763;28;45806;-81
2023/08/03 14:02:36;;;;;;;;;0.75;0.75;;;;;;;;5053359;28;47322;-80
2023/08/03 14:05:01;;;;;;;;;1.00;1.00;;;;;;;;5051743;28;46690;-82
2023/08/03 14:07:26;;;;;;;;;2.00;1.00;;;;;;;;5070868;28;45373;-81
2023/08/03 14:09:51;;;;;;;;;5.67;3.67;;;;;;;;5078042;28;45885;-81
2023/08/03 14:12:17;;;;;;;;;3.25;1.00;;;;;;;;5089022;28;45267;-80
2023/08/03 14:14:42;;;;;;;;;2.75;1.50;;;;;;;;5066667;28;46952;-81
2023/08/03 14:17:09;;;;;;;;;1.00;1.00;;;;;;;;5057080;28;45912;-81
2023/08/03 14:19:34;;;;;;;;;7.00;4.50;;;;;;;;5056960;28;45824;-81
2023/08/03 14:22:00;;;;;;;;;3.50;1.00;;;;;;;;5056165;28;46610;-80
2023/08/03 14:24:25;;;;;;;;;4.00;2.50;;;;;;;;5073215;28;46853;-81
2023/08/03 14:26:50;;;;;;;;;5.00;4.00;;;;;;;;5062587;28;45525;-80
2023/08/03 14:29:16;;;;;;;;;2.00;2.00;;;;;;;;5057514;28;45859;-81
2023/08/03 14:31:41;;;;;;;;;2.00;2.00;;;;;;;;5070784;28;45596;-80
2023/08/03 14:34:08;;;;;;;;;1.00;1.00;;;;;;;;5066444;27;48065;-81
2023/08/03 14:36:33;;;;;;;;;4.00;2.00;;;;;;;;5043722;28;45926;-79
2023/08/03 14:38:59;;;;;;;;;4.25;2.00;;;;;;;;5075456;28;45358;-81
2023/08/03 14:41:30;;;;;;;;;1.00;1.00;;;;;;;;5059256;28;45352;-81
2023/08/03 14:43:55;;;;;;;;;3.00;3.00;;;;;;;;5051047;28;47488;-81
2023/08/03 14:46:20;;;;;;;;;1.00;1.00;;;;;;;;5067183;28;45487;-81
2023/08/03 14:48:46;;;;;;;;;3.50;3.50;;;;;;;;5068039;28;45698;-80